createdAt,value
2023-02-12T00:00:45.405Z,93.00
2023-02-12T00:03:49.685Z,92.49
2023-02-12T00:06:53.550Z,92.68
2023-02-12T00:09:58.607Z,92.21
2023-02-12T00:13:01.730Z,90.31
2023-02-12T00:16:10.065Z,91.15
2023-02-12T00:19:13.243Z,90.71
2023-02-12T00:22:17.538Z,91.13
2023-02-12T00:25:20.785Z,91.02
2023-02-12T00:28:24.395Z,90.25
2023-02-12T00:31:30.740Z,89.92
2023-02-12T00:34:34.233Z,89.14
2023-02-12T00:37:37.336Z,89.13
2023-02-12T00:40:40.911Z,89.28
2023-02-12T00:43:44.577Z,89.46
2023-02-12T00:46:48.140Z,89.04
2023-02-12T00:49:53.025Z,88.82
2023-02-12T00:52:56.401Z,89.46
2023-02-12T00:56:00.347Z,90.52
2023-02-12T00:59:03.827Z,89.88
2023-02-12T01:02:07.002Z,89.68
2023-02-12T01:05:11.115Z,89.84
2023-02-12T01:08:16.521Z,89.66
2023-02-12T01:11:20.960Z,89.96
2023-02-12T01:14:26.157Z,90.11
2023-02-12T01:17:29.547Z,90.28
2023-02-12T01:20:33.597Z,90.86
2023-02-12T01:23:37.225Z,90.90
2023-02-12T01:26:40.420Z,91.57
2023-02-12T01:29:47.024Z,91.59
2023-02-12T01:32:50.328Z,91.80
2023-02-12T01:35:54.272Z,92.35
2023-02-12T01:38:59.356Z,92.73
2023-02-12T01:42:04.370Z,93.38
2023-02-12T01:45:13.560Z,92.66
2023-02-12T01:48:19.474Z,92.52
2023-02-12T01:51:24.403Z,92.47
2023-02-12T01:54:29.363Z,92.42
2023-02-12T01:57:34.840Z,92.62
2023-02-12T02:00:39.270Z,92.99
2023-02-12T02:03:45.366Z,92.77
2023-02-12T02:06:54.578Z,92.05
2023-02-12T02:09:59.214Z,92.45
2023-02-12T02:13:23.694Z,92.71
2023-02-12T02:16:30.759Z,92.58
2023-02-12T02:19:36.640Z,92.54
2023-02-12T02:23:10.261Z,92.67
2023-02-12T02:26:34.001Z,92.34
2023-02-12T02:29:47.716Z,92.33
2023-02-12T02:33:09.998Z,92.43
2023-02-12T02:36:32.192Z,92.57
2023-02-12T02:39:42.112Z,91.40
2023-02-12T02:43:28.442Z,91.84
2023-02-12T02:46:36.552Z,92.61
2023-02-12T02:49:51.448Z,92.56
2023-02-12T02:53:02.749Z,92.92
2023-02-12T02:56:09.018Z,92.37
2023-02-12T02:59:19.014Z,92.75
2023-02-12T03:02:29.587Z,93.13
2023-02-12T03:05:38.293Z,93.19
2023-02-12T03:08:49.856Z,92.88
2023-02-12T03:11:57.554Z,91.91
2023-02-12T03:15:12.514Z,91.94
2023-02-12T03:18:27.043Z,92.95
2023-02-12T03:21:35.573Z,91.91
2023-02-12T03:24:48.131Z,92.10
2023-02-12T03:28:10.089Z,91.89
2023-02-12T03:31:26.225Z,92.26
2023-02-12T03:35:14.979Z,92.31
2023-02-12T03:38:28.408Z,92.59
2023-02-12T03:41:40.457Z,91.81
2023-02-12T03:44:53.530Z,91.01
2023-02-12T03:47:59.938Z,91.09
2023-02-12T03:51:16.270Z,91.21
2023-02-12T03:54:22.294Z,90.48
2023-02-12T03:57:37.193Z,89.40
2023-02-12T04:00:41.242Z,89.29
2023-02-12T04:03:45.167Z,89.10
2023-02-12T04:06:50.592Z,89.92
2023-02-12T04:09:54.204Z,90.89
2023-02-12T04:13:16.305Z,91.90
2023-02-12T04:16:33.318Z,92.58
2023-02-12T04:20:27.793Z,92.66
2023-02-12T04:23:40.274Z,92.96
2023-02-12T04:26:49.318Z,93.48
2023-02-12T04:30:01.479Z,93.90
2023-02-12T04:33:10.850Z,95.00
2023-02-12T04:36:21.290Z,96.07
2023-02-12T04:39:32.981Z,97.12
2023-02-12T04:42:45.002Z,98.36
2023-02-12T04:45:48.119Z,99.74
2023-02-12T04:48:57.687Z,100.00
2023-02-12T04:52:01.900Z,100.00
2023-02-12T04:55:05.481Z,100.00
2023-02-12T04:58:09.237Z,100.00
2023-02-12T05:01:13.000Z,100.00
2023-02-12T05:04:17.576Z,100.00
2023-02-12T05:07:20.959Z,100.00
2023-02-12T05:10:24.126Z,100.00
2023-02-12T05:13:27.953Z,100.00
2023-02-12T05:16:31.087Z,100.00
2023-02-12T05:19:35.278Z,100.00
2023-02-12T05:22:38.587Z,100.00
2023-02-12T05:25:42.028Z,100.00
2023-02-12T05:28:45.291Z,100.00
2023-02-12T05:31:48.799Z,100.00
2023-02-12T05:34:52.129Z,100.00
2023-02-12T05:37:55.797Z,100.00
2023-02-12T05:41:10.835Z,100.00
2023-02-12T05:44:15.299Z,100.00
2023-02-12T05:47:18.596Z,100.00
2023-02-12T05:50:22.177Z,100.00
2023-02-12T05:53:34.550Z,100.00
2023-02-12T05:56:43.986Z,100.00
2023-02-12T05:59:47.554Z,100.00
2023-02-12T06:02:51.014Z,100.00
2023-02-12T06:05:55.065Z,100.00
2023-02-12T06:08:58.836Z,100.00
2023-02-12T06:12:02.218Z,100.00
2023-02-12T06:15:05.764Z,100.00
2023-02-12T06:18:09.399Z,100.00
2023-02-12T06:21:12.632Z,100.00
2023-02-12T06:24:17.619Z,100.00
2023-02-12T06:27:21.531Z,100.00
2023-02-12T06:30:25.054Z,100.00
2023-02-12T06:33:28.574Z,100.00
2023-02-12T06:36:32.646Z,100.00
2023-02-12T06:39:36.248Z,100.00
2023-02-12T06:42:39.624Z,100.00
2023-02-12T06:45:42.815Z,100.00
2023-02-12T06:48:46.528Z,100.00
2023-02-12T06:51:49.811Z,100.00
2023-02-12T06:54:53.620Z,100.00
2023-02-12T06:57:56.731Z,100.00
2023-02-12T07:01:18.783Z,100.00
2023-02-12T07:04:22.352Z,100.00
2023-02-12T07:07:25.877Z,100.00
2023-02-12T07:10:29.116Z,100.00
2023-02-12T07:13:35.063Z,100.00
2023-02-12T07:16:41.365Z,100.00
2023-02-12T07:19:44.810Z,100.00
2023-02-12T07:22:48.035Z,100.00
2023-02-12T07:25:59.534Z,100.00
2023-02-12T07:29:03.092Z,100.00
2023-02-12T07:32:07.423Z,100.00
2023-02-12T07:35:10.724Z,100.00
2023-02-12T07:38:14.458Z,100.00
2023-02-12T07:41:21.842Z,100.00
2023-02-12T07:44:25.584Z,100.00
2023-02-12T07:47:28.838Z,99.94
2023-02-12T07:50:32.230Z,97.64
2023-02-12T07:53:36.246Z,96.30
2023-02-12T07:56:44.269Z,95.06
2023-02-12T07:59:47.412Z,94.29
2023-02-12T08:02:54.690Z,93.61
2023-02-12T08:05:58.352Z,92.84
2023-02-12T08:09:03.698Z,92.53
2023-02-12T08:12:07.473Z,92.19
2023-02-12T08:15:11.549Z,90.42
2023-02-12T08:18:17.193Z,90.15
2023-02-12T08:21:23.376Z,87.88
2023-02-12T08:24:26.913Z,87.75
2023-02-12T08:27:30.238Z,87.06
2023-02-12T08:30:33.816Z,85.41
2023-02-12T08:33:37.473Z,83.51
2023-02-12T08:36:41.103Z,82.74
2023-02-12T08:39:44.253Z,81.74
2023-02-12T08:42:47.612Z,79.81
2023-02-12T08:45:50.735Z,80.34
2023-02-12T08:49:00.109Z,77.97
2023-02-12T08:52:03.599Z,76.44
2023-02-12T08:55:07.401Z,73.31
2023-02-12T08:58:10.622Z,71.08
2023-02-12T09:01:25.433Z,69.39
2023-02-12T09:04:29.543Z,68.80
2023-02-12T09:07:33.144Z,67.99
2023-02-12T09:10:40.676Z,68.01
2023-02-12T09:13:46.254Z,67.43
2023-02-12T09:16:52.671Z,66.95
2023-02-12T09:19:57.578Z,67.05
2023-02-12T09:23:01.018Z,65.74
2023-02-12T09:26:06.200Z,68.09
2023-02-12T09:29:10.026Z,67.58
2023-02-12T09:32:13.604Z,68.38
2023-02-12T09:35:18.735Z,67.55
2023-02-12T09:38:22.238Z,68.03
2023-02-12T09:41:44.494Z,66.78
2023-02-12T09:45:05.908Z,66.41
2023-02-12T09:48:43.354Z,64.90
2023-02-12T09:51:54.026Z,63.33
2023-02-12T09:54:58.375Z,61.88
2023-02-12T09:58:10.652Z,61.96
2023-02-12T10:01:17.441Z,60.43
2023-02-12T10:04:22.770Z,60.36
2023-02-12T10:07:32.346Z,60.69
2023-02-12T10:10:52.954Z,60.62
2023-02-12T10:14:18.419Z,59.44
2023-02-12T10:17:37.552Z,57.92
2023-02-12T10:20:58.812Z,58.21
2023-02-12T10:24:21.184Z,59.29
2023-02-12T10:27:41.168Z,59.28
2023-02-12T10:31:04.457Z,59.12
2023-02-12T10:34:25.232Z,58.59
2023-02-12T10:37:32.846Z,58.86
2023-02-12T10:40:39.380Z,58.29
2023-02-12T10:43:44.811Z,57.12
2023-02-12T10:46:48.467Z,57.85
2023-02-12T10:50:01.068Z,56.37
2023-02-12T10:53:04.647Z,56.57
2023-02-12T10:56:12.278Z,55.57
2023-02-12T10:59:24.297Z,54.41
2023-02-12T11:02:32.411Z,53.18
2023-02-12T11:05:36.734Z,53.71
2023-02-12T11:08:42.249Z,53.30
2023-02-12T11:11:49.594Z,54.97
2023-02-12T11:15:03.756Z,55.99
2023-02-12T11:18:20.382Z,53.81
2023-02-12T11:21:25.438Z,54.09
2023-02-12T11:24:36.979Z,52.46
2023-02-12T11:27:45.779Z,52.01
2023-02-12T11:31:00.341Z,51.47
2023-02-12T11:34:04.698Z,52.14
2023-02-12T11:37:19.459Z,51.11
2023-02-12T11:40:29.974Z,49.96
2023-02-12T11:43:37.512Z,50.39
2023-02-12T11:46:49.999Z,51.47
2023-02-12T11:50:05.962Z,50.34
2023-02-12T11:53:20.959Z,49.17
2023-02-12T11:56:25.555Z,49.09
2023-02-12T11:59:39.965Z,49.35
2023-02-12T12:03:16.747Z,48.08
2023-02-12T12:06:27.724Z,47.78
2023-02-12T12:10:01.786Z,48.61
2023-02-12T12:13:14.248Z,48.24
2023-02-12T12:16:47.441Z,50.67
2023-02-12T12:20:05.400Z,53.28
2023-02-12T12:23:49.212Z,55.26
2023-02-12T12:27:03.954Z,56.82
2023-02-12T12:30:19.065Z,58.25
2023-02-12T12:33:32.524Z,58.98
2023-02-12T12:37:03.330Z,59.90
2023-02-12T12:40:20.850Z,60.50
2023-02-12T12:43:36.617Z,60.49
2023-02-12T12:46:48.131Z,60.51
2023-02-12T12:50:27.138Z,60.59
2023-02-12T12:53:57.714Z,60.85
2023-02-12T12:57:19.745Z,60.91
2023-02-12T13:01:06.903Z,61.34
2023-02-12T13:04:45.736Z,61.88
2023-02-12T13:07:53.318Z,61.08
2023-02-12T13:11:30.681Z,61.20
2023-02-12T13:14:39.095Z,61.76
2023-02-12T13:17:46.299Z,61.92
2023-02-12T13:21:16.282Z,62.23
2023-02-12T13:24:32.129Z,61.83
2023-02-12T13:27:45.680Z,61.58
2023-02-12T13:30:54.008Z,61.90
2023-02-12T13:34:02.829Z,62.25
2023-02-12T13:37:16.140Z,62.73
2023-02-12T13:40:26.578Z,63.41
2023-02-12T13:43:48.600Z,63.81
2023-02-12T13:47:04.925Z,64.13
2023-02-12T13:50:24.627Z,64.09
2023-02-12T13:53:46.485Z,64.23
2023-02-12T13:56:54.727Z,64.46
2023-02-12T14:00:00.425Z,64.56
2023-02-12T14:03:10.373Z,64.73
2023-02-12T14:06:22.336Z,65.15
2023-02-12T14:10:00.348Z,65.47
2023-02-12T14:13:13.392Z,65.71
2023-02-12T14:16:20.760Z,65.78
2023-02-12T14:19:50.863Z,63.39
2023-02-12T14:23:21.792Z,61.48
2023-02-12T14:26:37.480Z,59.49
2023-02-12T14:30:24.180Z,59.00
2023-02-12T14:33:29.148Z,59.02
2023-02-12T14:36:33.361Z,58.58
2023-02-12T14:39:38.585Z,59.29
2023-02-12T14:42:55.500Z,60.32
2023-02-12T14:46:25.857Z,61.55
2023-02-12T14:49:53.366Z,62.45
2023-02-12T14:53:30.938Z,63.63
2023-02-12T14:56:47.542Z,65.28
2023-02-12T15:00:13.960Z,66.33
2023-02-12T15:03:20.631Z,67.53
2023-02-12T15:06:38.537Z,68.40
2023-02-12T15:09:52.957Z,68.86
2023-02-12T15:13:34.984Z,68.69
2023-02-12T15:16:49.449Z,69.05
2023-02-12T15:20:04.409Z,69.23
2023-02-12T15:23:33.810Z,69.71
2023-02-12T15:26:47.328Z,70.13
2023-02-12T15:29:56.205Z,70.98
2023-02-12T15:33:14.267Z,71.93
2023-02-12T15:36:27.393Z,72.48
2023-02-12T15:39:45.371Z,73.42
2023-02-12T15:43:00.089Z,74.41
2023-02-12T15:46:16.863Z,75.30
2023-02-12T15:49:25.564Z,76.37
2023-02-12T15:52:36.599Z,77.35
2023-02-12T15:55:46.935Z,78.71
2023-02-12T15:58:54.692Z,79.95
2023-02-12T16:02:03.984Z,81.18
2023-02-12T16:05:16.221Z,82.80
2023-02-12T16:08:23.504Z,83.71
2023-02-12T16:11:31.000Z,84.80
2023-02-12T16:14:49.148Z,85.92
2023-02-12T16:17:55.889Z,87.35
2023-02-12T16:21:22.956Z,89.21
2023-02-12T16:24:48.688Z,90.31
2023-02-12T16:28:08.929Z,90.86
2023-02-12T16:31:17.456Z,92.00
2023-02-12T16:34:37.471Z,93.09
2023-02-12T16:37:51.212Z,94.02
2023-02-12T16:41:35.817Z,94.69
2023-02-12T16:44:42.474Z,95.27
2023-02-12T16:47:51.666Z,95.71
2023-02-12T16:50:59.301Z,96.15
2023-02-12T16:54:06.109Z,97.07
2023-02-12T16:57:13.518Z,97.78
2023-02-12T17:00:24.560Z,98.64
2023-02-12T17:03:33.307Z,99.65
2023-02-12T17:06:38.244Z,99.90
2023-02-12T17:09:44.839Z,100.00
2023-02-12T17:12:52.680Z,100.00
2023-02-12T17:16:01.917Z,100.00
2023-02-12T17:19:06.966Z,100.00
2023-02-12T17:22:31.237Z,100.00
2023-02-12T17:25:39.286Z,100.00
2023-02-12T17:28:45.360Z,100.00
2023-02-12T17:31:55.374Z,100.00
2023-02-12T17:35:02.968Z,100.00
2023-02-12T17:38:08.913Z,100.00
2023-02-12T17:41:15.636Z,100.00
2023-02-12T17:44:21.481Z,100.00
2023-02-12T17:47:27.106Z,100.00
2023-02-12T17:50:32.608Z,100.00
2023-02-12T17:53:39.733Z,100.00
2023-02-12T17:56:44.275Z,100.00
2023-02-12T17:59:49.989Z,100.00
2023-02-12T18:02:57.124Z,100.00
2023-02-12T18:06:04.489Z,100.00
2023-02-12T18:09:12.623Z,100.00
2023-02-12T18:12:19.018Z,100.00
2023-02-12T18:15:27.900Z,100.00
2023-02-12T18:18:36.075Z,100.00
2023-02-12T18:21:48.015Z,100.00
2023-02-12T18:24:52.750Z,100.00
2023-02-12T18:27:58.485Z,100.00
2023-02-12T18:31:05.887Z,100.00
2023-02-12T18:34:11.242Z,100.00
2023-02-12T18:37:18.972Z,100.00
2023-02-12T18:40:28.468Z,100.00
2023-02-12T18:43:37.686Z,100.00
2023-02-12T18:46:47.121Z,100.00
2023-02-12T18:49:54.561Z,100.00
2023-02-12T18:53:02.348Z,100.00
2023-02-12T18:56:11.085Z,100.00
2023-02-12T18:59:19.380Z,100.00
2023-02-12T19:02:27.473Z,100.00
2023-02-12T19:05:38.456Z,100.00
2023-02-12T19:08:44.352Z,100.00
2023-02-12T19:11:53.604Z,100.00
2023-02-12T19:15:01.018Z,100.00
2023-02-12T19:18:10.469Z,100.00
2023-02-12T19:21:20.740Z,100.00
2023-02-12T19:24:40.857Z,100.00
2023-02-12T19:27:52.192Z,100.00
2023-02-12T19:30:57.676Z,100.00
2023-02-12T19:34:09.761Z,100.00
2023-02-12T19:37:17.143Z,100.00
2023-02-12T19:40:23.161Z,100.00
2023-02-12T19:43:30.089Z,100.00
2023-02-12T19:46:39.901Z,100.00
2023-02-12T19:49:46.513Z,100.00
2023-02-12T19:52:52.823Z,100.00
2023-02-12T19:56:05.517Z,100.00
2023-02-12T19:59:17.808Z,100.00
2023-02-12T20:02:23.166Z,100.00
2023-02-12T20:05:30.830Z,100.00
2023-02-12T20:08:40.287Z,100.00
2023-02-12T20:11:46.720Z,100.00
2023-02-12T20:14:51.876Z,100.00
2023-02-12T20:17:59.685Z,100.00
2023-02-12T20:21:12.985Z,100.00
2023-02-12T20:24:19.787Z,100.00
2023-02-12T20:27:26.964Z,100.00
2023-02-12T20:30:35.221Z,100.00
2023-02-12T20:33:41.223Z,100.00
2023-02-12T20:36:48.060Z,100.00
2023-02-12T20:39:55.794Z,100.00
2023-02-12T20:43:03.217Z,100.00
2023-02-12T20:46:12.382Z,100.00
2023-02-12T20:49:20.462Z,100.00
2023-02-12T20:52:26.422Z,100.00
2023-02-12T20:55:31.526Z,100.00
2023-02-12T20:58:36.493Z,100.00
2023-02-12T21:01:43.645Z,100.00
2023-02-12T21:04:52.432Z,100.00
2023-02-12T21:07:59.089Z,100.00
2023-02-12T21:11:13.636Z,100.00
2023-02-12T21:14:23.129Z,100.00
2023-02-12T21:17:28.475Z,100.00
2023-02-12T21:20:33.676Z,100.00
2023-02-12T21:23:39.067Z,100.00
2023-02-12T21:26:45.886Z,100.00
2023-02-12T21:29:55.265Z,100.00
2023-02-12T21:33:06.827Z,100.00
2023-02-12T21:36:15.337Z,100.00
2023-02-12T21:39:29.571Z,100.00
2023-02-12T21:42:33.772Z,100.00
2023-02-12T21:45:38.454Z,100.00
2023-02-12T21:48:43.017Z,100.00
2023-02-12T21:51:50.617Z,100.00
2023-02-12T21:54:58.312Z,100.00
2023-02-12T21:58:03.956Z,100.00
2023-02-12T22:01:16.612Z,100.00
2023-02-12T22:04:21.516Z,100.00
2023-02-12T22:07:26.266Z,100.00
2023-02-12T22:10:29.822Z,100.00
2023-02-12T22:13:33.489Z,100.00
2023-02-12T22:16:37.540Z,100.00
2023-02-12T22:19:41.053Z,100.00
2023-02-12T22:22:44.800Z,100.00
2023-02-12T22:25:48.107Z,100.00
2023-02-12T22:28:54.539Z,100.00
2023-02-12T22:31:58.638Z,100.00
2023-02-12T22:35:02.249Z,100.00
2023-02-12T22:38:05.661Z,100.00
2023-02-12T22:41:10.348Z,100.00
2023-02-12T22:44:14.811Z,100.00
2023-02-12T22:47:18.344Z,100.00
2023-02-12T22:50:21.541Z,100.00
2023-02-12T22:53:26.015Z,100.00
2023-02-12T22:56:29.235Z,100.00
2023-02-12T22:59:32.710Z,100.00
2023-02-12T23:02:36.609Z,100.00
2023-02-12T23:05:40.119Z,100.00
2023-02-12T23:08:44.050Z,100.00
2023-02-12T23:11:49.001Z,100.00
2023-02-12T23:14:52.194Z,100.00
2023-02-12T23:17:55.574Z,100.00
2023-02-12T23:20:59.508Z,100.00
2023-02-12T23:24:03.089Z,100.00
2023-02-12T23:27:06.401Z,100.00
2023-02-12T23:30:10.509Z,100.00
2023-02-12T23:33:13.703Z,100.00
2023-02-12T23:36:17.329Z,100.00
2023-02-12T23:39:20.712Z,100.00
2023-02-12T23:42:24.187Z,100.00
2023-02-12T23:45:28.521Z,100.00
2023-02-12T23:48:32.596Z,100.00
2023-02-12T23:51:35.817Z,100.00
2023-02-12T23:54:40.868Z,100.00
2023-02-12T23:57:44.043Z,100.00
